Time;durP1;ratioP1;P1;durP2;ratioP2;P2;SDS_P1;SDS_P2;PMS_P1;PMS_P2;Temp;Humidity;BMP_temperature;BMP_pressure;BME280_temperature;BME280_humidity;BME280_pressure;Samples;Min_cycle;Max_cycle;Signal;HPM_P1;HPM_P2
2021/05/07 00:01:16;;;;;;;2.78;1.50;;;10.20;92.40;;;;;;5099766;28;27338;-58
2021/05/07 00:04:01;;;;;;;1.58;1.30;;;10.20;92.40;;;;;;5103923;28;27344;-58
2021/05/07 00:06:47;;;;;;;1.63;1.27;;;10.20;92.60;;;;;;5103996;28;27414;-58
2021/05/07 00:09:31;;;;;;;1.52;1.02;;;10.20;92.80;;;;;;5100643;28;27355;-58
2021/05/07 00:12:16;;;;;;;1.58;1.17;;;10.20;93.00;;;;;;5103422;28;27408;-58
2021/05/07 00:15:01;;;;;;;1.20;0.98;;;10.10;93.20;;;;;;5103543;28;27399;-58
2021/05/07 00:17:45;;;;;;;1.17;1.00;;;10.10;92.90;;;;;;5103601;28;27379;-58
2021/05/07 00:20:29;;;;;;;2.08;1.13;;;10.10;93.00;;;;;;5103719;28;27411;-57
2021/05/07 00:23:15;;;;;;;2.58;1.13;;;10.10;93.40;;;;;;5099389;28;27535;-58
2021/05/07 00:25:59;;;;;;;1.20;1.10;;;10.10;93.30;;;;;;5103462;28;27595;-57
2021/05/07 00:28:44;;;;;;;1.58;1.10;;;10.10;93.20;;;;;;5102827;28;27481;-58
2021/05/07 00:31:31;;;;;;;1.20;1.10;;;10.10;93.20;;;;;;5103686;28;27356;-57
2021/05/07 00:34:16;;;;;;;1.20;0.90;;;10.10;93.40;;;;;;5103263;28;27426;-56
2021/05/07 00:37:01;;;;;;;1.33;1.00;;;10.10;93.60;;;;;;5099525;28;27415;-58
2021/05/07 00:39:45;;;;;;;1.42;0.95;;;10.10;93.40;;;;;;5099923;28;27327;-58
2021/05/07 00:42:30;;;;;;;1.63;1.10;;;10.10;93.60;;;;;;5099134;28;27332;-58
2021/05/07 00:45:16;;;;;;;0.93;0.82;;;10.10;93.40;;;;;;5084762;28;27501;-58
2021/05/07 00:48:06;;;;;;;1.65;1.00;;;10.10;93.40;;;;;;5099181;28;27375;-58
2021/05/07 00:50:51;;;;;;;1.23;1.00;;;10.00;93.40;;;;;;5103243;28;27327;-58
2021/05/07 00:53:36;;;;;;;1.40;1.02;;;10.00;93.40;;;;;;5099108;28;27528;-58
2021/05/07 00:56:21;;;;;;;0.75;0.73;;;10.00;93.30;;;;;;5103051;28;27534;-58
2021/05/07 00:59:05;;;;;;;1.05;0.98;;;10.00;92.90;;;;;;5088170;28;27471;-58
2021/05/07 01:01:50;;;;;;;1.75;0.70;;;10.10;92.90;;;;;;5102581;28;27612;-58
2021/05/07 01:04:35;;;;;;;1.00;0.90;;;10.00;92.80;;;;;;5102416;28;27419;-58
2021/05/07 01:07:20;;;;;;;0.85;0.85;;;10.00;93.10;;;;;;5088259;28;27494;-58
2021/05/07 01:10:07;;;;;;;1.15;1.00;;;10.00;93.20;;;;;;5106866;28;27485;-58
2021/05/07 01:12:52;;;;;;;0.95;0.88;;;10.00;93.20;;;;;;5102696;28;27423;-58
2021/05/07 01:15:37;;;;;;;0.85;0.82;;;10.00;93.30;;;;;;5102228;28;27502;-58
2021/05/07 01:18:22;;;;;;;1.10;1.00;;;10.00;93.20;;;;;;5106494;28;27501;-58
2021/05/07 01:21:08;;;;;;;2.08;0.80;;;10.00;93.20;;;;;;5102330;28;27546;-58
2021/05/07 01:23:53;;;;;;;2.55;0.80;;;10.00;92.90;;;;;;5103174;28;27459;-58
2021/05/07 01:26:41;;;;;;;1.00;0.90;;;10.00;93.40;;;;;;5106389;28;27492;-58
2021/05/07 01:29:26;;;;;;;1.00;0.90;;;10.00;93.60;;;;;;5102163;28;27395;-57
2021/05/07 01:32:11;;;;;;;0.60;0.60;;;10.00;93.60;;;;;;5102183;28;27371;-58
2021/05/07 01:34:56;;;;;;;0.98;0.85;;;10.00;93.40;;;;;;5102095;28;27327;-58
2021/05/07 01:37:42;;;;;;;1.10;0.90;;;9.90;93.40;;;;;;5087900;28;27340;-58
2021/05/07 01:40:32;;;;;;;1.50;0.80;;;10.00;93.40;;;;;;5101919;28;27427;-58
2021/05/07 01:43:16;;;;;;;0.73;0.70;;;9.90;93.40;;;;;;5102173;28;27475;-57
2021/05/07 01:46:03;;;;;;;0.70;0.70;;;9.90;93.60;;;;;;5088017;28;27430;-58
2021/05/07 01:48:48;;;;;;;0.60;0.60;;;9.90;93.60;;;;;;5102204;28;27409;-58
2021/05/07 01:51:33;;;;;;;0.88;0.80;;;9.90;93.70;;;;;;5105816;28;27500;-58
2021/05/07 01:54:20;;;;;;;1.10;0.82;;;9.90;93.60;;;;;;5101860;28;27391;-58
2021/05/07 01:57:05;;;;;;;1.20;0.80;;;9.90;93.80;;;;;;5107683;28;27453;-58
2021/05/07 01:59:50;;;;;;;2.55;0.80;;;9.90;93.90;;;;;;5102022;28;27413;-57
2021/05/07 02:02:34;;;;;;;0.60;0.55;;;9.90;93.80;;;;;;5105678;28;27476;-57
2021/05/07 02:05:19;;;;;;;1.45;0.68;;;9.90;93.70;;;;;;5104966;28;27329;-58
2021/05/07 02:08:06;;;;;;;2.05;0.70;;;9.90;93.70;;;;;;5105971;28;27397;-58
2021/05/07 02:10:51;;;;;;;1.48;0.77;;;9.90;93.60;;;;;;5105442;28;27379;-58
2021/05/07 02:13:37;;;;;;;0.60;0.60;;;9.90;93.80;;;;;;5101409;28;27408;-58
2021/05/07 02:16:22;;;;;;;0.70;0.70;;;9.90;93.70;;;;;;5105846;28;27320;-59
2021/05/07 02:19:08;;;;;;;1.23;0.60;;;9.80;93.60;;;;;;5087220;28;27365;-58
2021/05/07 02:21:53;;;;;;;1.48;0.68;;;9.90;93.70;;;;;;5105710;28;27469;-58
2021/05/07 02:24:38;;;;;;;0.95;0.50;;;9.80;93.90;;;;;;5102008;28;27349;-58
2021/05/07 02:27:22;;;;;;;0.80;0.55;;;9.80;93.80;;;;;;5104744;28;27586;-58
2021/05/07 02:30:09;;;;;;;1.80;1.00;;;9.80;93.90;;;;;;5101991;28;27328;-58
2021/05/07 02:32:54;;;;;;;0.52;0.50;;;9.80;93.80;;;;;;5102912;28;27398;-58
2021/05/07 02:35:39;;;;;;;2.67;0.57;;;9.80;94.10;;;;;;5101890;28;27481;-58
2021/05/07 02:38:26;;;;;;;1.25;0.50;;;9.80;94.00;;;;;;5101395;28;27409;-57
2021/05/07 02:41:11;;;;;;;0.73;0.63;;;9.80;94.10;;;;;;5105432;28;27432;-58
2021/05/07 02:43:58;;;;;;;3.88;1.83;;;9.80;94.00;;;;;;5100900;28;27964;-58
2021/05/07 02:46:49;;;;;;;0.70;0.70;;;9.80;94.40;;;;;;5101801;28;27391;-58
2021/05/07 02:49:34;;;;;;;0.80;0.80;;;9.80;94.00;;;;;;5101194;28;27371;-58
2021/05/07 02:52:19;;;;;;;0.73;0.70;;;9.80;94.10;;;;;;5104252;28;27372;-58
2021/05/07 02:55:06;;;;;;;1.10;0.70;;;9.80;94.10;;;;;;5104767;28;27431;-58
2021/05/07 02:57:51;;;;;;;1.40;0.52;;;9.80;94.00;;;;;;5101696;28;27420;-58
2021/05/07 03:00:38;;;;;;;1.98;0.52;;;9.80;93.90;;;;;;5103996;28;27420;-58
2021/05/07 03:03:22;;;;;;;1.70;0.70;;;9.80;94.10;;;;;;5101742;28;27465;-58
2021/05/07 03:06:07;;;;;;;0.63;0.60;;;9.70;93.90;;;;;;5104853;28;27430;-58
2021/05/07 03:08:51;;;;;;;0.52;0.52;;;9.70;94.00;;;;;;5104632;28;27466;-56
2021/05/07 03:11:36;;;;;;;0.50;0.50;;;9.70;94.10;;;;;;5104985;28;27454;-58
2021/05/07 03:14:20;;;;;;;0.60;0.47;;;9.70;93.80;;;;;;5104435;28;27415;-58
2021/05/07 03:17:05;;;;;;;0.57;0.52;;;9.70;94.00;;;;;;5104605;28;27401;-58
2021/05/07 03:19:50;;;;;;;0.85;0.50;;;9.70;94.00;;;;;;5104514;28;27405;-58
2021/05/07 03:22:34;;;;;;;0.60;0.50;;;9.70;94.10;;;;;;5104310;27;27375;-58
2021/05/07 03:25:19;;;;;;;0.57;0.57;;;9.70;94.00;;;;;;5104208;28;27332;-58
2021/05/07 03:28:04;;;;;;;0.40;0.40;;;9.70;94.30;;;;;;5103524;28;27577;-58
2021/05/07 03:30:48;;;;;;;0.75;0.50;;;9.70;94.30;;;;;;5104374;28;27345;-58
2021/05/07 03:33:34;;;;;;;0.52;0.47;;;9.70;94.40;;;;;;5100293;28;27384;-58
2021/05/07 03:36:18;;;;;;;0.77;0.60;;;9.70;94.30;;;;;;5104558;28;27391;-58
2021/05/07 03:39:03;;;;;;;0.45;0.45;;;9.70;94.40;;;;;;5103380;28;27421;-58
2021/05/07 03:41:47;;;;;;;0.57;0.57;;;9.70;94.20;;;;;;5104099;28;27511;-58
2021/05/07 03:44:32;;;;;;;0.63;0.40;;;9.60;94.50;;;;;;5100138;28;27391;-58
2021/05/07 03:47:16;;;;;;;0.65;0.40;;;9.60;94.30;;;;;;5104400;28;27372;-58
2021/05/07 03:50:01;;;;;;;0.80;0.65;;;9.60;94.20;;;;;;5104233;28;27328;-58
2021/05/07 03:52:46;;;;;;;0.55;0.55;;;9.60;94.20;;;;;;5103852;28;27410;-58
2021/05/07 03:55:31;;;;;;;2.95;0.50;;;9.60;94.30;;;;;;5103425;28;27344;-58
2021/05/07 03:58:16;;;;;;;0.82;0.70;;;9.60;94.30;;;;;;5100633;28;27398;-58
2021/05/07 04:01:01;;;;;;;0.50;0.50;;;9.60;94.10;;;;;;5103878;28;27362;-58
2021/05/07 04:03:46;;;;;;;0.65;0.50;;;9.60;94.30;;;;;;5099975;28;27393;-58
2021/05/07 04:06:31;;;;;;;4.20;0.50;;;9.60;94.00;;;;;;5103972;28;27328;-58
2021/05/07 04:09:19;;;;;;;0.40;0.40;;;9.60;93.90;;;;;;5103904;28;27351;-58
2021/05/07 04:13:30;;;;;;;0.50;0.50;;;9.60;93.70;;;;;;5103827;28;27931;-58
2021/05/07 04:15:27;;;;;;;0.40;0.40;;;9.60;93.30;;;;;;5103118;28;27393;-57
2021/05/07 04:18:12;;;;;;;0.63;0.52;;;9.60;93.20;;;;;;5099731;28;27383;-58
2021/05/07 04:20:57;;;;;;;0.43;0.30;;;9.60;93.10;;;;;;5103014;28;27316;-58
2021/05/07 04:23:42;;;;;;;0.55;0.38;;;9.60;92.80;;;;;;5099364;28;27345;-58
2021/05/07 04:26:27;;;;;;;0.35;0.35;;;9.60;92.90;;;;;;5100466;28;27328;-58
2021/05/07 04:29:11;;;;;;;0.20;0.20;;;9.60;92.60;;;;;;5099620;28;27333;-59
2021/05/07 04:31:57;;;;;;;0.30;0.30;;;9.60;92.50;;;;;;5103540;28;27399;-58
2021/05/07 04:34:42;;;;;;;1.15;0.20;;;9.60;92.00;;;;;;5099747;28;27340;-58
2021/05/07 04:37:42;;;;;;;0.50;0.40;;;9.60;92.00;;;;;;5101386;28;27377;-58
2021/05/07 04:40:27;;;;;;;1.58;0.30;;;9.60;92.20;;;;;;5100317;28;27470;-58
2021/05/07 04:43:12;;;;;;;0.20;0.20;;;9.60;92.10;;;;;;5099250;28;27431;-57
2021/05/07 04:45:57;;;;;;;0.52;0.30;;;9.60;92.30;;;;;;5103238;28;27926;-57
2021/05/07 04:48:41;;;;;;;0.13;0.13;;;9.60;92.50;;;;;;5102938;28;27488;-57
2021/05/07 04:51:26;;;;;;;0.40;0.30;;;9.60;92.50;;;;;;5102633;28;27483;-58
2021/05/07 04:54:11;;;;;;;0.20;0.20;;;9.60;92.50;;;;;;5103197;28;27435;-58
2021/05/07 04:56:56;;;;;;;0.10;0.10;;;9.60;92.90;;;;;;5103075;28;27471;-58
2021/05/07 04:59:40;;;;;;;0.38;0.10;;;9.50;92.90;;;;;;5102950;28;27454;-58
2021/05/07 05:02:26;;;;;;;0.47;0.30;;;9.50;92.90;;;;;;5103171;28;27332;-58
2021/05/07 05:05:12;;;;;;;0.10;0.10;;;9.50;92.90;;;;;;5102989;28;27489;-58
2021/05/07 05:07:57;;;;;;;0.38;0.38;;;9.50;92.80;;;;;;5102993;28;27425;-58
2021/05/07 05:10:42;;;;;;;0.20;0.20;;;9.50;93.10;;;;;;5102974;28;27497;-58
2021/05/07 05:13:27;;;;;;;0.30;0.30;;;9.50;93.20;;;;;;5102911;28;27464;-58
2021/05/07 05:16:12;;;;;;;0.45;0.20;;;9.50;93.10;;;;;;5102716;28;27454;-58
2021/05/07 05:18:56;;;;;;;0.45;0.30;;;9.50;93.50;;;;;;5102963;28;27899;-58
2021/05/07 05:21:41;;;;;;;0.30;0.30;;;9.50;93.60;;;;;;5102809;28;27509;-58
2021/05/07 05:24:26;;;;;;;0.52;0.40;;;9.40;94.00;;;;;;5102807;28;27496;-57
2021/05/07 05:27:11;;;;;;;0.85;0.30;;;9.40;94.00;;;;;;5100187;28;27384;-58
2021/05/07 05:29:55;;;;;;;0.95;0.38;;;9.40;94.00;;;;;;5102817;28;27460;-58
2021/05/07 05:32:39;;;;;;;1.10;0.30;;;9.40;94.20;;;;;;5102675;28;27419;-57
2021/05/07 05:35:24;;;;;;;0.40;0.30;;;9.40;94.30;;;;;;5102535;28;27379;-57
2021/05/07 05:38:09;;;;;;;0.20;0.20;;;9.40;94.30;;;;;;5102191;27;27398;-56
2021/05/07 05:40:54;;;;;;;0.40;0.30;;;9.40;94.10;;;;;;5098475;28;27853;-58
2021/05/07 05:43:39;;;;;;;0.35;0.28;;;9.40;94.60;;;;;;5101988;28;27439;-58
2021/05/07 05:46:24;;;;;;;0.20;0.20;;;9.40;94.70;;;;;;5103077;27;27320;-58
2021/05/07 05:49:08;;;;;;;2.05;0.30;;;9.30;94.70;;;;;;5103453;28;27361;-57
2021/05/07 05:51:53;;;;;;;2.38;0.47;;;9.30;94.40;;;;;;5103796;28;27973;-58
2021/05/07 05:54:37;;;;;;;0.20;0.20;;;9.30;94.90;;;;;;5106684;28;27359;-57
2021/05/07 05:57:22;;;;;;;1.48;0.30;;;9.30;95.30;;;;;;5107054;28;27426;-57
2021/05/07 06:00:07;;;;;;;0.38;0.30;;;9.30;95.40;;;;;;5106879;28;27324;-57
2021/05/07 06:02:55;;;;;;;0.40;0.40;;;9.30;95.30;;;;;;5103331;28;27457;-57
2021/05/07 06:05:40;;;;;;;0.75;0.63;;;9.30;93.10;;;;;;5107123;28;27395;-57
2021/05/07 06:08:25;;;;;;;0.40;0.40;;;9.30;91.80;;;;;;5106820;28;27328;-57
2021/05/07 06:11:09;;;;;;;0.45;0.30;;;9.40;91.30;;;;;;5103740;28;27321;-57
2021/05/07 06:13:53;;;;;;;0.32;0.30;;;9.40;91.10;;;;;;5106794;28;27415;-57
2021/05/07 06:16:38;;;;;;;0.57;0.43;;;9.40;91.30;;;;;;5103454;28;27403;-57
2021/05/07 06:19:23;;;;;;;0.40;0.40;;;9.50;91.20;;;;;;5106677;28;27350;-57
2021/05/07 06:22:07;;;;;;;0.80;0.70;;;9.40;91.20;;;;;;5106601;28;27384;-58
2021/05/07 06:24:52;;;;;;;0.77;0.70;;;9.50;91.30;;;;;;5105714;28;27329;-58
2021/05/07 06:27:37;;;;;;;1.45;1.35;;;9.40;91.10;;;;;;5103397;28;27333;-57
2021/05/07 06:30:21;;;;;;;0.60;0.60;;;9.40;91.30;;;;;;5106824;28;27382;-57
2021/05/07 06:33:08;;;;;;;1.40;0.82;;;9.40;91.30;;;;;;5103135;28;27378;-56
2021/05/07 06:35:53;;;;;;;0.98;0.80;;;9.40;91.00;;;;;;5105604;28;27420;-58
2021/05/07 06:38:38;;;;;;;1.83;1.20;;;9.40;91.10;;;;;;5105817;28;27327;-58
2021/05/07 06:41:23;;;;;;;1.17;0.98;;;9.30;90.90;;;;;;5106383;28;27346;-57
2021/05/07 06:44:07;;;;;;;3.63;1.60;;;9.30;91.00;;;;;;5106636;28;27363;-58
2021/05/07 06:46:52;;;;;;;1.80;1.40;;;9.30;91.00;;;;;;5106139;28;27870;-58
2021/05/07 06:49:37;;;;;;;1.63;1.17;;;9.30;91.00;;;;;;5106284;28;27367;-58
2021/05/07 06:52:23;;;;;;;1.23;0.82;;;9.30;91.20;;;;;;5106450;28;27333;-57
2021/05/07 06:55:08;;;;;;;1.45;0.80;;;9.30;91.00;;;;;;5105867;28;27427;-58
2021/05/07 06:57:53;;;;;;;4.10;0.70;;;9.30;91.30;;;;;;5105979;27;27332;-57
2021/05/07 07:00:38;;;;;;;1.15;0.70;;;9.30;91.20;;;;;;5106325;28;27374;-58
2021/05/07 07:03:22;;;;;;;0.60;0.50;;;9.30;91.30;;;;;;5105941;28;27374;-57
2021/05/07 07:06:07;;;;;;;0.60;0.43;;;9.30;91.30;;;;;;5104794;28;27364;-57
2021/05/07 07:08:52;;;;;;;0.73;0.73;;;9.30;91.40;;;;;;5105867;28;27384;-57
2021/05/07 07:11:36;;;;;;;0.47;0.47;;;9.40;91.30;;;;;;5106046;28;27379;-57
2021/05/07 07:14:22;;;;;;;0.40;0.40;;;9.40;91.50;;;;;;5106075;28;27414;-58
2021/05/07 07:17:07;;;;;;;1.95;0.40;;;9.40;91.40;;;;;;5105805;28;27371;-57
2021/05/07 07:19:52;;;;;;;0.82;0.82;;;9.40;91.60;;;;;;5102265;28;28055;-57
2021/05/07 07:22:37;;;;;;;0.63;0.50;;;9.40;91.60;;;;;;5105491;28;27423;-58
2021/05/07 07:25:21;;;;;;;0.50;0.50;;;9.40;91.50;;;;;;5105788;28;27348;-57
2021/05/07 07:28:06;;;;;;;0.52;0.50;;;9.40;91.40;;;;;;5104972;28;27320;-57
2021/05/07 07:30:51;;;;;;;20.50;7.65;;;9.50;91.40;;;;;;5101273;28;27396;-58
2021/05/07 07:33:36;;;;;;;1.95;0.98;;;9.50;91.50;;;;;;5105202;28;27344;-57
2021/05/07 07:36:21;;;;;;;2.08;1.42;;;9.50;91.40;;;;;;5105558;28;27414;-57
2021/05/07 07:39:06;;;;;;;4.70;2.28;;;9.50;91.30;;;;;;5105238;28;27356;-57
2021/05/07 07:41:51;;;;;;;2.08;1.55;;;9.50;91.30;;;;;;5105251;28;28056;-57
2021/05/07 07:44:36;;;;;;;2.42;1.45;;;9.50;91.10;;;;;;5105451;28;27461;-57
2021/05/07 07:47:20;;;;;;;1.23;0.90;;;9.50;91.10;;;;;;5105293;28;27501;-57
2021/05/07 07:50:06;;;;;;;1.45;0.90;;;9.50;91.20;;;;;;5105174;28;27485;-57
2021/05/07 07:52:52;;;;;;;1.67;0.85;;;9.40;91.30;;;;;;5105080;28;27406;-57
2021/05/07 07:55:36;;;;;;;0.80;0.70;;;9.50;91.50;;;;;;5104818;28;27489;-57
2021/05/07 07:58:21;;;;;;;2.70;0.80;;;9.50;91.30;;;;;;5105407;28;27309;-57
2021/05/07 08:01:06;;;;;;;1.65;1.10;;;9.50;91.30;;;;;;5104644;28;27377;-57
2021/05/07 08:03:51;;;;;;;0.80;0.73;;;9.50;91.30;;;;;;5104869;28;27378;-57
2021/05/07 08:06:54;;;;;;;2.22;1.40;;;9.50;91.20;;;;;;5104884;28;27356;-56
2021/05/07 08:10:09;;;;;;;1.10;1.00;;;9.50;91.30;;;;;;5073634;28;27547;-56
2021/05/07 08:13:17;;;;;;;3.00;1.30;;;9.50;91.30;;;;;;5102656;28;27465;-56
2021/05/07 08:16:03;;;;;;;1.83;1.20;;;9.50;91.30;;;;;;5101157;28;27397;-58
2021/05/07 08:18:48;;;;;;;1.90;1.48;;;9.50;91.20;;;;;;5104701;28;27430;-57
2021/05/07 08:21:34;;;;;;;1.45;1.25;;;9.50;91.30;;;;;;5104728;28;27323;-58
2021/05/07 08:24:19;;;;;;;2.25;1.23;;;9.50;91.30;;;;;;5104620;28;27341;-56
2021/05/07 08:27:08;;;;;;;0.90;0.90;;;9.50;91.10;;;;;;5101232;28;27355;-56
2021/05/07 08:29:55;;;;;;;2.33;1.48;;;9.50;91.00;;;;;;5104707;28;27476;-58
2021/05/07 08:32:40;;;;;;;1.65;1.42;;;9.50;91.20;;;;;;5104720;28;27458;-57
2021/05/07 08:35:25;;;;;;;2.50;1.20;;;9.60;91.30;;;;;;5104139;28;26923;-57
2021/05/07 08:38:11;;;;;;;1.80;1.70;;;9.60;91.40;;;;;;5104358;28;27537;-57
2021/05/07 08:40:56;;;;;;;1.85;1.60;;;9.70;91.30;;;;;;5100557;28;27589;-57
2021/05/07 08:43:41;;;;;;;1.70;1.50;;;9.80;91.50;;;;;;5104676;28;27375;-58
2021/05/07 08:46:26;;;;;;;2.35;1.73;;;9.90;91.50;;;;;;5104594;28;27336;-58
2021/05/07 08:49:11;;;;;;;3.17;2.22;;;9.90;91.60;;;;;;5103586;28;27944;-58
2021/05/07 08:51:58;;;;;;;2.15;1.95;;;10.10;91.70;;;;;;5100223;28;27433;-58
2021/05/07 08:54:43;;;;;;;4.07;2.40;;;10.30;92.10;;;;;;5103622;28;27313;-58
2021/05/07 08:57:29;;;;;;;3.78;2.65;;;10.60;92.30;;;;;;5104184;28;27325;-58
2021/05/07 09:00:14;;;;;;;4.63;3.50;;;11.00;92.40;;;;;;5104377;28;27340;-58
2021/05/07 09:03:06;;;;;;;10.15;4.25;;;11.60;92.20;;;;;;5104165;28;27339;-58
2021/05/07 09:05:51;;;;;;;7.32;4.07;;;12.50;91.00;;;;;;5104396;28;27359;-59
2021/05/07 09:08:35;;;;;;;3.83;3.20;;;13.50;88.50;;;;;;5103267;28;27426;-59
2021/05/07 09:11:21;;;;;;;5.38;3.38;;;14.60;85.20;;;;;;5104057;28;27994;-60
2021/05/07 09:14:05;;;;;;;3.10;2.65;;;15.20;83.30;;;;;;5103865;28;27529;-60
2021/05/07 09:17:03;;;;;;;3.97;2.90;;;15.80;81.50;;;;;;5100812;28;27393;-60
2021/05/07 09:19:48;;;;;;;3.72;3.10;;;16.40;80.00;;;;;;5104038;28;27385;-60
2021/05/07 09:22:33;;;;;;;3.30;3.00;;;16.50;78.80;;;;;;5105054;27;27410;-60
2021/05/07 09:25:18;;;;;;;4.85;2.60;;;16.40;77.50;;;;;;5106723;28;27396;-60
2021/05/07 09:28:07;;;;;;;3.60;2.88;;;16.70;78.20;;;;;;5106161;28;27378;-61
2021/05/07 09:30:52;;;;;;;3.55;2.15;;;17.30;78.00;;;;;;5103703;28;27424;-60
2021/05/07 09:33:41;;;;;;;3.92;2.28;;;17.60;75.90;;;;;;5092351;28;27483;-61
2021/05/07 09:36:29;;;;;;;4.90;2.70;;;17.70;75.30;;;;;;5106656;28;27517;-61
2021/05/07 09:39:22;;;;;;;2.90;2.20;;;18.00;74.10;;;;;;5107655;28;27410;-60
2021/05/07 09:42:07;;;;;;;2.30;2.10;;;18.50;71.70;;;;;;5107610;28;27328;-61
2021/05/07 09:44:52;;;;;;;2.85;2.42;;;18.90;68.40;;;;;;5107247;28;27336;-61
2021/05/07 09:47:36;;;;;;;5.63;2.05;;;18.90;66.60;;;;;;5107501;28;27378;-61
2021/05/07 09:50:38;;;;;;;7.05;2.78;;;19.00;65.90;;;;;;5106935;28;27359;-61
2021/05/07 09:53:29;;;;;;;2.97;1.92;;;19.20;65.40;;;;;;5103770;28;27461;-62
2021/05/07 09:56:18;;;;;;;5.20;2.08;;;19.40;65.00;;;;;;5106587;28;27844;-61
2021/05/07 09:59:04;;;;;;;3.42;2.25;;;19.40;63.30;;;;;;5106995;28;27469;-61
2021/05/07 10:01:49;;;;;;;2.78;2.08;;;19.30;63.30;;;;;;5107386;28;27450;-61
2021/05/07 10:04:33;;;;;;;2.50;2.22;;;19.40;62.50;;;;;;5107331;28;27467;-62
2021/05/07 10:07:19;;;;;;;4.40;2.10;;;19.50;62.90;;;;;;5103083;28;27471;-62
2021/05/07 10:10:05;;;;;;;2.95;2.20;;;19.80;61.60;;;;;;5106802;28;27489;-61
2021/05/07 10:12:53;;;;;;;2.90;2.03;;;19.90;60.90;;;;;;5107139;28;27442;-61
2021/05/07 10:15:38;;;;;;;2.85;2.03;;;19.80;61.10;;;;;;5106578;28;27428;-61
2021/05/07 10:18:24;;;;;;;2.90;2.17;;;19.40;60.40;;;;;;5106218;28;27422;-61
2021/05/07 10:21:11;;;;;;;3.08;2.05;;;19.00;61.50;;;;;;5106542;28;27413;-62
2021/05/07 10:23:58;;;;;;;3.22;2.00;;;18.70;62.00;;;;;;5106596;28;27465;-61
2021/05/07 10:26:46;;;;;;;4.40;2.22;;;18.70;62.70;;;;;;5102847;28;27504;-62
2021/05/07 10:29:31;;;;;;;2.20;2.00;;;18.90;63.40;;;;;;5106749;28;27556;-62
2021/05/07 10:32:16;;;;;;;3.22;2.08;;;19.20;63.20;;;;;;5105198;27;27536;-62
2021/05/07 10:35:01;;;;;;;4.05;2.30;;;19.50;63.50;;;;;;5105836;28;27432;-63
2021/05/07 10:37:47;;;;;;;4.03;1.90;;;19.80;61.90;;;;;;5102570;28;27458;-64
2021/05/07 10:40:32;;;;;;;2.80;2.17;;;20.10;62.30;;;;;;5102360;28;27846;-64
2021/05/07 10:43:17;;;;;;;3.15;2.45;;;20.40;62.00;;;;;;5105925;28;27506;-62
2021/05/07 10:46:02;;;;;;;4.30;2.38;;;20.60;60.90;;;;;;5102990;28;27367;-68
2021/05/07 10:48:54;;;;;;;5.55;2.00;;;21.00;60.10;;;;;;5106292;28;27328;-58
2021/05/07 10:51:38;;;;;;;10.57;2.72;;;21.10;61.80;;;;;;5106097;28;27968;-58
2021/05/07 10:54:44;;;;;;;3.80;2.00;;;20.90;59.90;;;;;;5106254;28;27537;-57
2021/05/07 10:57:30;;;;;;;5.07;2.20;;;20.50;58.40;;;;;;5105487;28;27414;-58
2021/05/07 11:00:16;;;;;;;9.32;1.98;;;20.00;56.90;;;;;;5106310;28;27415;-56
2021/05/07 11:03:01;;;;;;;3.63;2.00;;;19.50;57.90;;;;;;5105554;28;28032;-62
2021/05/07 11:05:48;;;;;;;2.42;1.83;;;19.40;58.30;;;;;;5105462;28;27444;-59
2021/05/07 11:08:33;;;;;;;4.68;2.30;;;19.50;59.00;;;;;;5106116;28;27406;-59
2021/05/07 11:11:18;;;;;;;5.18;2.20;;;19.70;59.50;;;;;;5105488;28;27623;-58
2021/05/07 11:14:03;;;;;;;6.93;1.95;;;20.00;60.90;;;;;;5101619;28;27310;-59
2021/05/07 11:16:48;;;;;;;2.10;1.60;;;20.20;60.20;;;;;;5105674;28;27332;-59
2021/05/07 11:19:34;;;;;;;2.70;2.00;;;20.30;59.80;;;;;;5105754;28;27344;-59
2021/05/07 11:22:24;;;;;;;3.85;2.00;;;20.20;57.90;;;;;;5105498;28;27316;-59
2021/05/07 11:25:10;;;;;;;4.22;1.83;;;19.90;58.40;;;;;;5105610;28;27437;-59
2021/05/07 11:27:54;;;;;;;3.13;1.95;;;19.70;59.20;;;;;;5104052;28;27454;-58
2021/05/07 11:30:48;;;;;;;2.88;1.73;;;19.40;58.60;;;;;;5105413;28;27500;-59
2021/05/07 11:33:33;;;;;;;4.93;1.73;;;19.30;58.80;;;;;;5105697;28;27392;-58
2021/05/07 11:36:18;;;;;;;2.38;1.88;;;19.20;60.20;;;;;;5105096;28;27880;-59
2021/05/07 11:39:14;;;;;;;2.67;1.73;;;19.20;61.00;;;;;;5104869;28;27659;-59
2021/05/07 11:41:59;;;;;;;3.15;1.50;;;19.10;59.80;;;;;;5105493;28;27442;-59
2021/05/07 11:44:48;;;;;;;2.05;1.80;;;19.10;59.00;;;;;;5104179;27;27438;-59
2021/05/07 11:47:34;;;;;;;3.42;1.60;;;19.10;57.80;;;;;;5105648;28;27344;-59
2021/05/07 11:50:21;;;;;;;2.28;1.92;;;19.00;58.20;;;;;;5104780;28;27400;-58
2021/05/07 11:53:21;;;;;;;2.20;1.88;;;18.90;58.40;;;;;;5105647;28;27477;-59
2021/05/07 11:56:06;;;;;;;3.40;3.00;;;18.80;57.90;;;;;;5104987;28;27528;-59
2021/05/07 11:58:52;;;;;;;6.97;4.05;;;18.80;58.30;;;;;;5105198;28;27980;-59
2021/05/07 12:01:37;;;;;;;3.88;2.70;;;18.90;60.10;;;;;;5105479;28;27335;-59
2021/05/07 12:04:25;;;;;;;4.05;2.47;;;19.00;61.50;;;;;;5104694;28;27376;-59
2021/05/07 12:07:35;;;;;;;3.70;2.10;;;19.20;62.00;;;;;;5104974;28;27363;-59
2021/05/07 12:10:25;;;;;;;3.95;2.10;;;19.40;62.30;;;;;;5105354;28;28038;-59
2021/05/07 12:13:21;;;;;;;4.82;2.45;;;19.70;62.60;;;;;;5105010;28;27330;-59
2021/05/07 12:16:06;;;;;;;3.75;1.77;;;19.90;64.00;;;;;;5104882;28;27428;-59
2021/05/07 12:18:52;;;;;;;5.72;2.08;;;20.10;61.80;;;;;;5101264;28;27341;-59
2021/05/07 12:21:44;;;;;;;2.65;1.58;;;20.00;61.00;;;;;;5104890;28;27852;-59
2021/05/07 12:24:30;;;;;;;2.75;1.77;;;20.10;59.10;;;;;;5104866;28;27348;-59
2021/05/07 12:27:26;;;;;;;3.55;1.80;;;20.10;58.80;;;;;;5104226;28;27332;-59
2021/05/07 12:30:21;;;;;;;2.03;1.83;;;20.10;57.70;;;;;;5104729;28;27427;-59
2021/05/07 12:33:07;;;;;;;3.78;1.60;;;20.10;58.80;;;;;;5104976;28;27395;-59
2021/05/07 12:35:53;;;;;;;3.45;1.60;;;20.00;59.70;;;;;;5101394;28;27490;-59
2021/05/07 12:38:39;;;;;;;1.85;1.38;;;19.80;59.40;;;;;;5104667;28;27477;-59
2021/05/07 12:41:26;;;;;;;1.77;1.63;;;19.60;57.60;;;;;;5104921;28;27441;-59
2021/05/07 12:44:13;;;;;;;2.22;1.70;;;19.40;58.10;;;;;;5104527;28;27439;-57
2021/05/07 12:46:59;;;;;;;2.75;1.83;;;19.10;58.00;;;;;;5103694;28;27411;-59
2021/05/07 12:49:44;;;;;;;4.15;1.98;;;18.90;57.60;;;;;;5104803;28;27323;-52
2021/05/07 12:52:34;;;;;;;4.43;2.40;;;18.70;57.30;;;;;;5101446;28;27375;-56
2021/05/07 12:55:19;;;;;;;8.35;2.92;;;18.60;57.40;;;;;;5103784;27;28010;-61
2021/05/07 12:58:04;;;;;;;4.63;1.90;;;18.50;57.80;;;;;;5104084;28;27404;-53
2021/05/07 13:00:50;;;;;;;4.68;1.90;;;18.40;57.30;;;;;;5104986;28;27399;-59
2021/05/07 13:03:35;;;;;;;3.13;1.70;;;18.40;57.00;;;;;;5107762;28;27541;-61
2021/05/07 13:06:20;;;;;;;3.88;1.75;;;18.40;57.40;;;;;;5104259;28;27423;-59
2021/05/07 13:09:05;;;;;;;4.00;1.70;;;18.30;57.30;;;;;;5108392;28;27417;-58
2021/05/07 13:11:49;;;;;;;2.75;1.80;;;18.20;56.30;;;;;;5107921;28;27399;-60
2021/05/07 13:14:34;;;;;;;5.65;2.47;;;18.10;56.00;;;;;;5108054;28;27427;-60
2021/05/07 13:17:45;;;;;;;2.75;1.45;;;18.00;55.80;;;;;;5107905;28;27367;-61
2021/05/07 13:20:29;;;;;;;4.20;2.22;;;18.00;56.20;;;;;;5104501;28;27323;-62
2021/05/07 13:23:14;;;;;;;4.28;2.50;;;17.90;56.80;;;;;;5103817;28;26897;-63
2021/05/07 13:25:59;;;;;;;6.45;1.98;;;17.70;53.50;;;;;;5104374;28;27316;-69
2021/05/07 13:28:44;;;;;;;6.50;2.05;;;17.50;53.70;;;;;;5106488;28;27324;-60
2021/05/07 13:31:29;;;;;;;4.72;1.88;;;17.50;53.80;;;;;;5107833;28;27422;-61
2021/05/07 13:34:14;;;;;;;1.90;1.40;;;17.60;55.40;;;;;;5103532;28;27423;-59
2021/05/07 13:36:59;;;;;;;3.60;1.58;;;17.60;56.00;;;;;;5107809;28;27393;-63
2021/05/07 13:39:44;;;;;;;4.95;2.00;;;17.60;57.00;;;;;;5103697;28;27376;-61
2021/05/07 13:42:29;;;;;;;3.03;2.50;;;17.50;57.20;;;;;;5106719;28;27411;-62
2021/05/07 13:45:14;;;;;;;2.25;1.65;;;17.50;57.30;;;;;;5107452;28;27427;-61
2021/05/07 13:47:59;;;;;;;3.08;1.58;;;17.40;56.00;;;;;;5107699;28;27386;-63
2021/05/07 13:50:43;;;;;;;2.80;1.58;;;17.20;54.60;;;;;;5107654;28;27311;-61
2021/05/07 13:53:28;;;;;;;2.65;1.60;;;17.10;54.00;;;;;;5107604;28;27368;-61
2021/05/07 13:56:13;;;;;;;2.65;1.73;;;16.90;54.70;;;;;;5105909;28;27341;-62
2021/05/07 13:58:58;;;;;;;4.30;1.42;;;16.80;54.80;;;;;;5107172;28;27370;-62
2021/05/07 14:01:43;;;;;;;2.17;1.40;;;16.70;55.30;;;;;;5107052;28;27357;-61
2021/05/07 14:04:28;;;;;;;4.50;1.50;;;16.70;55.60;;;;;;5107308;28;27374;-61
2021/05/07 14:07:14;;;;;;;2.15;1.27;;;16.80;55.40;;;;;;5106529;27;27332;-62
2021/05/07 14:10:00;;;;;;;2.00;1.25;;;17.00;56.90;;;;;;5107311;28;27355;-61
2021/05/07 14:12:45;;;;;;;2.17;1.48;;;17.10;58.70;;;;;;5107170;28;27372;-61
2021/05/07 14:15:30;;;;;;;4.60;2.83;;;17.30;59.30;;;;;;5106970;28;27316;-61
2021/05/07 14:18:15;;;;;;;1.83;1.30;;;17.40;58.30;;;;;;5106858;28;27359;-62
2021/05/07 14:21:00;;;;;;;2.97;1.13;;;17.40;58.50;;;;;;5106111;28;27315;-61
2021/05/07 14:23:46;;;;;;;4.32;1.83;;;17.40;58.70;;;;;;5107017;28;27312;-61
2021/05/07 14:26:31;;;;;;;2.33;1.15;;;17.40;57.40;;;;;;5105723;28;27413;-61
2021/05/07 14:29:16;;;;;;;2.92;1.25;;;17.40;56.80;;;;;;5105213;28;27616;-60
2021/05/07 14:32:01;;;;;;;3.05;1.42;;;17.40;56.40;;;;;;5103656;28;27336;-61